Time;durP1;ratioP1;P1;durP2;ratioP2;P2;SDS_P1;SDS_P2;PMS_P1;PMS_P2;Temp;Humidity;BMP_temperature;BMP_pressure;BME280_temperature;BME280_humidity;BME280_pressure;Samples;Min_cycle;Max_cycle;Signal;HPM_P1;HPM_P2
2022/09/24 00:01:10;;;;;;;6.38;0.95;;;;;;;14.92;95.57;100632.38;5090907;28;20032;-85
2022/09/24 00:03:35;;;;;;;6.32;0.82;;;;;;;14.84;96.39;100634.81;5093398;28;20127;-85
2022/09/24 00:06:02;;;;;;;3.67;0.88;;;;;;;14.87;96.48;100630.13;5093650;28;20530;-85
2022/09/24 00:08:28;;;;;;;2.35;0.90;;;;;;;14.76;96.80;100640.75;5092845;28;20028;-85
2022/09/24 00:10:56;;;;;;;6.63;0.95;;;;;;;14.79;96.90;100634.34;5091638;28;20115;-85
2022/09/24 00:13:21;;;;;;;3.80;1.40;;;;;;;14.61;97.50;100640.19;5093406;28;20088;-85
2022/09/24 00:15:49;;;;;;;1.77;0.75;;;;;;;14.59;98.58;100638.63;5093165;28;20119;-85
2022/09/24 00:18:16;;;;;;;5.30;1.63;;;;;;;14.66;98.40;100635.34;5093304;28;20523;-84
2022/09/24 00:20:42;;;;;;;4.28;0.93;;;;;;;14.67;97.32;100638.84;5092952;28;20490;-85
2022/09/24 00:23:09;;;;;;;3.70;0.50;;;;;;;14.70;97.47;100640.41;5092855;28;20035;-85
2022/09/24 00:28:26;;;;;;;4.38;1.10;;;;;;;14.51;99.75;100631.28;5092667;28;20035;-85
2022/09/24 00:30:51;;;;;;;4.63;1.10;;;;;;;14.53;99.47;100632.00;5092553;28;20028;-85
2022/09/24 00:33:17;;;;;;;5.93;1.40;;;;;;;14.45;100.00;100630.00;5092518;28;20059;-85
2022/09/24 00:35:42;;;;;;;4.75;1.15;;;;;;;14.54;99.04;100625.75;5092684;28;20031;-85
2022/09/24 00:38:08;;;;;;;8.75;1.50;;;;;;;14.49;100.00;100635.84;5092629;28;20085;-85
2022/09/24 00:40:35;;;;;;;3.58;0.90;;;;;;;14.46;100.00;100626.38;5091436;28;20024;-85
2022/09/24 00:43:01;;;;;;;3.45;1.10;;;;;;;14.26;100.00;100628.00;5091929;28;20036;-84
2022/09/24 00:45:29;;;;;;;3.88;1.23;;;;;;;14.30;100.00;100618.03;5090663;28;20024;-85
2022/09/24 00:47:57;;;;;;;5.07;1.00;;;;;;;14.22;100.00;100623.91;5090385;28;20405;-85
2022/09/24 00:50:30;;;;;;;3.72;1.05;;;;;;;14.17;100.00;100612.88;5091968;28;20020;-85
2022/09/24 00:53:03;;;;;;;9.80;1.50;;;;;;;14.17;100.00;100626.06;5091134;28;20039;-85
2022/09/24 00:55:32;;;;;;;4.50;1.67;;;;;;;14.18;100.00;100625.13;5089496;28;21267;-85
2022/09/24 00:58:02;;;;;;;3.72;1.17;;;;;;;13.98;100.00;100623.19;5091315;28;20034;-85
2022/09/24 01:00:28;;;;;;;6.18;1.38;;;;;;;14.07;100.00;100628.59;5090657;28;20086;-85
2022/09/24 01:02:58;;;;;;;9.27;1.40;;;;;;;14.12;100.00;100617.69;5091378;28;20044;-85
2022/09/24 01:05:24;;;;;;;4.25;1.00;;;;;;;14.00;100.00;100618.63;5090216;28;20043;-85
2022/09/24 01:07:49;;;;;;;5.53;1.60;;;;;;;13.94;100.00;100620.00;5089290;28;20028;-85
2022/09/24 01:10:46;;;;;;;5.03;1.10;;;;;;;14.05;100.00;100624.41;5091555;28;20030;-85
2022/09/24 01:13:16;;;;;;;4.80;1.38;;;;;;;14.06;100.00;100626.94;5091497;28;20381;-84
2022/09/24 01:15:49;;;;;;;4.63;1.38;;;;;;;14.00;100.00;100621.28;5091494;28;20104;-85
2022/09/24 01:18:28;;;;;;;4.57;1.27;;;;;;;13.96;100.00;100630.41;5091495;28;20016;-84
2022/09/24 01:21:11;;;;;;;4.82;1.25;;;;;;;13.88;100.00;100618.66;5093498;28;20016;-85
2022/09/24 01:24:02;;;;;;;5.30;1.27;;;;;;;13.90;100.00;100621.16;5095508;28;20112;-85
2022/09/24 01:26:50;;;;;;;5.20;1.37;;;;;;;13.86;100.00;100619.72;5094186;28;20035;-84
2022/09/24 01:29:20;;;;;;;5.57;1.45;;;;;;;13.75;100.00;100617.94;5095822;28;20115;-85
2022/09/24 01:31:54;;;;;;;7.20;1.88;;;;;;;13.79;100.00;100614.09;5096467;28;20046;-84
2022/09/24 01:34:26;;;;;;;6.20;1.20;;;;;;;13.73;100.00;100619.84;5096051;28;20024;-85
2022/09/24 01:36:56;;;;;;;7.90;1.92;;;;;;;13.57;100.00;100611.47;5094926;28;20036;-85
2022/09/24 01:39:22;;;;;;;6.07;1.45;;;;;;;13.77;100.00;100609.91;5094481;28;20050;-85
2022/09/24 01:41:48;;;;;;;11.52;1.73;;;;;;;13.67;100.00;100613.25;5095906;28;20035;-85
2022/09/24 01:44:17;;;;;;;8.68;2.28;;;;;;;13.64;100.00;100610.84;5095480;28;20026;-85
2022/09/24 01:46:42;;;;;;;4.13;1.23;;;;;;;13.82;100.00;100611.22;5095621;28;20024;-85
2022/09/24 01:49:08;;;;;;;6.68;1.98;;;;;;;13.85;100.00;100610.97;5095789;28;20120;-84
2022/09/24 01:51:42;;;;;;;7.07;2.05;;;;;;;13.75;100.00;100607.38;5094749;28;20103;-85
2022/09/24 01:54:16;;;;;;;5.38;1.52;;;;;;;13.75;100.00;100604.75;5095536;28;20106;-85
2022/09/24 01:56:52;;;;;;;2.60;1.38;;;;;;;13.80;100.00;100593.81;5095244;28;20024;-85
2022/09/24 01:59:30;;;;;;;5.82;1.60;;;;;;;13.66;100.00;100601.03;5095394;28;20394;-85
2022/09/24 02:02:13;;;;;;;7.30;1.60;;;;;;;13.64;100.00;100600.28;5095390;28;20024;-85
2022/09/24 02:04:44;;;;;;;3.92;1.40;;;;;;;13.70;100.00;100593.69;5093941;28;20020;-84
2022/09/24 02:07:18;;;;;;;5.65;1.20;;;;;;;13.63;100.00;100598.63;5095099;28;20074;-85
2022/09/24 02:09:44;;;;;;;7.93;1.95;;;;;;;13.62;100.00;100596.94;5095143;28;20028;-85
2022/09/24 02:12:13;;;;;;;10.20;2.30;;;;;;;13.45;100.00;100592.97;5095350;28;20051;-85
2022/09/24 02:14:53;;;;;;;3.60;1.55;;;;;;;13.44;100.00;100586.00;5093784;28;20359;-85
2022/09/24 02:17:23;;;;;;;4.25;1.30;;;;;;;13.51;100.00;100588.16;5095018;28;20027;-85
2022/09/24 02:19:49;;;;;;;7.10;2.38;;;;;;;13.51;100.00;100581.13;5093872;28;20044;-84
2022/09/24 02:22:16;;;;;;;5.22;1.60;;;;;;;13.53;100.00;100581.00;5094436;28;20064;-84
2022/09/24 02:24:57;;;;;;;5.28;2.13;;;;;;;13.64;100.00;100589.72;5094646;28;20028;-84
2022/09/24 02:27:27;;;;;;;4.32;1.58;;;;;;;13.48;100.00;100584.81;5094372;28;20032;-84
2022/09/24 02:29:53;;;;;;;8.17;1.53;;;;;;;13.64;100.00;100575.72;5093421;28;20020;-84
2022/09/24 02:32:20;;;;;;;;;;;;;;;13.64;100.00;100578.34;5095079;28;19993;-84
2022/09/24 02:34:49;;;;;;;;;;;;;;;13.75;100.00;100583.63;5094612;28;19926;-84
2022/09/24 02:37:15;;;;;;;;;;;;;;;13.66;100.00;100581.72;5095212;28;19908;-84
2022/09/24 02:39:41;;;;;;;;;;;;;;;13.54;100.00;100590.59;5095525;28;19920;-84
2022/09/24 02:42:08;;;;;;;;;;;;;;;13.67;100.00;100588.69;5094926;28;20007;-85
2022/09/24 02:44:35;;;;;;;;;;;;;;;13.40;100.00;100592.47;5094951;28;19912;-84
2022/09/24 02:47:00;;;;;;;;;;;;;;;13.57;100.00;100588.56;5093293;28;19919;-84
2022/09/24 02:49:25;;;;;;;;;;;;;;;13.46;100.00;100594.63;5093943;28;19916;-85
2022/09/24 02:51:50;;;;;;;;;;;;;;;13.30;100.00;100602.06;5094258;28;20014;-84
2022/09/24 02:54:16;;;;;;;6.10;1.70;;;;;;;13.29;100.00;100593.31;5094001;28;20314;-85
2022/09/24 02:56:41;;;;;;;6.72;1.45;;;;;;;13.29;100.00;100590.69;5094258;28;20584;-84
2022/09/24 02:59:07;;;;;;;3.85;1.17;;;;;;;13.35;100.00;100589.38;5094185;28;20092;-84
2022/09/24 03:01:33;;;;;;;7.47;1.60;;;;;;;13.48;100.00;100592.72;5093838;28;20388;-85
2022/09/24 03:03:59;;;;;;;2.80;1.15;;;;;;;13.38;100.00;100589.13;5094039;28;20466;-84
2022/09/24 03:06:25;;;;;;;6.78;1.65;;;;;;;13.38;100.00;100591.75;5093032;28;20035;-84
2022/09/24 03:08:52;;;;;;;9.05;1.67;;;;;;;13.27;100.00;100592.56;5094217;28;20024;-84
2022/09/24 03:11:18;;;;;;;5.70;1.30;;;;;;;13.46;100.00;100593.81;5094104;28;20040;-85
2022/09/24 03:13:44;;;;;;;4.70;1.25;;;;;;;13.42;100.00;100587.91;5093957;28;20054;-85
2022/09/24 03:16:09;;;;;;;6.15;2.05;;;;;;;13.35;100.00;100594.66;5094292;28;20032;-84
2022/09/24 03:18:34;;;;;;;9.13;2.67;;;;;;;13.52;100.00;100595.97;5093940;28;20062;-84
2022/09/24 03:21:05;;;;;;;5.90;1.50;;;;;;;13.33;100.00;100583.38;5092549;28;20021;-84
2022/09/24 03:23:31;;;;;;;3.35;1.55;;;;;;;13.53;100.00;100597.66;5093793;28;20111;-84
2022/09/24 03:25:57;;;;;;;6.63;1.40;;;;;;;13.44;100.00;100582.53;5093570;28;20107;-84
2022/09/24 03:28:22;;;;;;;7.05;1.83;;;;;;;13.48;100.00;100589.25;5093502;28;20035;-84
2022/09/24 03:31:00;;;;;;;4.82;1.50;;;;;;;13.38;100.00;100591.75;5093226;28;20028;-84
2022/09/24 03:33:28;;;;;;;7.25;1.50;;;;;;;13.21;100.00;100584.25;5093551;28;20377;-84
2022/09/24 03:35:57;;;;;;;5.25;1.15;;;;;;;13.39;100.00;100579.41;5092032;28;20028;-84
2022/09/24 03:38:23;;;;;;;3.55;1.45;;;;;;;13.06;100.00;100584.47;5093035;28;20024;-84
2022/09/24 03:40:48;;;;;;;6.80;2.08;;;;;;;13.21;100.00;100581.63;5092696;28;20388;-84
2022/09/24 03:43:13;;;;;;;6.13;1.38;;;;;;;13.37;100.00;100581.31;5092277;28;20481;-84
2022/09/24 03:45:39;;;;;;;6.93;1.50;;;;;;;13.16;100.00;100589.06;5092881;28;20059;-84
2022/09/24 03:48:05;;;;;;;4.78;1.25;;;;;;;12.92;100.00;100582.03;5092467;28;20377;-84
2022/09/24 03:50:31;;;;;;;10.90;1.80;;;;;;;13.08;100.00;100582.56;5089576;28;20114;-84
2022/09/24 03:52:56;;;;;;;7.78;1.38;;;;;;;13.31;100.00;100587.94;5092653;28;20095;-84
2022/09/24 03:55:21;;;;;;;6.88;1.55;;;;;;;13.26;100.00;100585.59;5092230;28;20054;-84
2022/09/24 03:57:47;;;;;;;5.97;1.50;;;;;;;13.36;100.00;100598.94;5092343;28;20102;-84
2022/09/24 04:00:12;;;;;;;7.63;1.60;;;;;;;13.38;100.00;100599.66;5092486;28;20066;-84
2022/09/24 04:02:39;;;;;;;3.63;1.40;;;;;;;13.03;100.00;100603.19;5092464;28;20028;-85
2022/09/24 04:05:05;;;;;;;8.10;2.38;;;;;;;12.94;100.00;100601.22;5092401;28;20055;-85
2022/09/24 04:07:31;;;;;;;7.95;1.50;;;;;;;12.81;100.00;100596.00;5091536;28;20480;-85
2022/09/24 04:09:56;;;;;;;5.07;2.20;;;;;;;12.88;100.00;100602.50;5092449;28;20098;-85
2022/09/24 04:12:22;;;;;;;5.90;2.25;;;;;;;12.93;100.00;100607.44;5092325;28;20031;-85
2022/09/24 04:14:48;;;;;;;9.20;1.60;;;;;;;12.84;100.00;100610.78;5092448;28;20109;-85
2022/09/24 04:17:13;;;;;;;4.63;1.30;;;;;;;12.97;100.00;100615.94;5092239;28;20478;-85
2022/09/24 04:19:39;;;;;;;8.32;1.35;;;;;;;13.00;100.00;100605.19;5091177;28;20024;-85
2022/09/24 04:22:04;;;;;;;5.22;0.93;;;;;;;13.06;100.00;100613.47;5092308;28;20397;-85
2022/09/24 04:24:30;;;;;;;5.18;1.02;;;;;;;13.16;100.00;100615.44;5092155;28;20020;-85
2022/09/24 04:26:55;;;;;;;5.13;1.70;;;;;;;13.05;100.00;100611.81;5092074;28;20039;-85
2022/09/24 04:29:20;;;;;;;9.85;1.67;;;;;;;12.69;100.00;100603.03;5092218;28;20028;-85
2022/09/24 04:31:45;;;;;;;5.43;1.65;;;;;;;12.69;100.00;100618.81;5092090;28;20474;-85
2022/09/24 04:34:11;;;;;;;3.67;1.13;;;;;;;12.88;100.00;100617.50;5091052;28;20560;-85
2022/09/24 04:36:36;;;;;;;3.72;1.25;;;;;;;12.91;100.00;100617.25;5091819;28;20024;-85
2022/09/24 04:39:02;;;;;;;5.95;1.30;;;;;;;13.09;100.00;100615.88;5091877;28;20029;-85
2022/09/24 04:41:27;;;;;;;4.53;1.10;;;;;;;13.06;100.00;100617.91;5092025;28;20185;-85
2022/09/24 04:43:53;;;;;;;10.13;1.42;;;;;;;12.83;100.00;100614.34;5090827;28;20099;-85
2022/09/24 04:46:18;;;;;;;8.45;1.45;;;;;;;12.86;100.00;100614.13;5090779;28;20050;-85
2022/09/24 04:48:43;;;;;;;5.00;1.05;;;;;;;12.95;100.00;100616.06;5089965;28;20032;-85
2022/09/24 04:51:09;;;;;;;6.47;1.58;;;;;;;12.76;100.00;100618.41;5091840;28;20054;-85
2022/09/24 04:53:36;;;;;;;6.97;1.35;;;;;;;12.79;100.00;100618.16;5091614;28;20024;-85
2022/09/24 04:56:03;;;;;;;4.13;1.35;;;;;;;13.13;100.00;100623.56;5094441;28;20023;-85
2022/09/24 04:58:29;;;;;;;7.20;1.90;;;;;;;12.92;100.00;100618.94;5096202;28;20051;-85
2022/09/24 05:00:54;;;;;;;10.30;1.98;;;;;;;13.06;100.00;100620.53;5096249;28;20056;-85
2022/09/24 05:03:20;;;;;;;6.30;1.75;;;;;;;12.87;100.00;100621.06;5095966;28;20028;-85
2022/09/24 05:05:45;;;;;;;6.22;1.70;;;;;;;12.97;100.00;100621.22;5095964;28;20046;-85
2022/09/24 05:08:12;;;;;;;3.47;0.90;;;;;;;12.74;100.00;100626.41;5095709;28;20059;-84
2022/09/24 05:10:37;;;;;;;6.05;1.20;;;;;;;12.82;100.00;100625.84;5094897;28;20045;-85
2022/09/24 05:13:03;;;;;;;8.25;1.65;;;;;;;13.15;100.00;100619.88;5095887;28;20023;-85
2022/09/24 05:15:28;;;;;;;6.90;1.13;;;;;;;13.12;100.00;100630.63;5095729;28;20094;-85
2022/09/24 05:17:53;;;;;;;8.00;1.65;;;;;;;12.93;100.00;100628.50;5095748;28;20024;-85
2022/09/24 05:20:19;;;;;;;6.10;1.50;;;;;;;12.87;100.00;100627.19;5095788;28;20107;-85
2022/09/24 05:22:46;;;;;;;3.70;1.10;;;;;;;12.90;100.00;100634.03;5095819;28;20098;-85
2022/09/24 05:25:13;;;;;;;13.45;1.80;;;;;;;12.81;100.00;100627.63;5095720;28;20070;-85
2022/09/24 05:27:50;;;;;;;5.65;1.00;;;;;;;13.03;100.00;100634.81;5094431;28;20056;-85
2022/09/24 05:30:17;;;;;;;4.22;1.30;;;;;;;12.97;100.00;100632.59;5096008;28;20038;-85
2022/09/24 05:32:42;;;;;;;12.10;1.65;;;;;;;12.99;100.00;100640.41;5095634;28;20048;-85
2022/09/24 05:35:08;;;;;;;4.10;1.55;;;;;;;12.89;100.00;100640.25;5095578;28;20059;-85
2022/09/24 05:37:37;;;;;;;2.05;0.98;;;;;;;13.07;100.00;100646.81;5095453;28;20031;-85
2022/09/24 05:42:49;;;;;;;7.70;1.48;;;;;;;12.95;100.00;100652.13;5095506;28;20035;-85
2022/09/24 05:45:16;;;;;;;4.82;1.67;;;;;;;12.66;100.00;100655.13;5095576;28;20107;-85
2022/09/24 05:47:45;;;;;;;7.80;1.40;;;;;;;12.96;100.00;100654.66;5095318;28;20032;-85
2022/09/24 05:50:12;;;;;;;5.25;1.35;;;;;;;13.04;100.00;100667.28;5095214;28;20047;-85
2022/09/24 05:52:41;;;;;;;4.05;1.27;;;;;;;13.21;100.00;100664.22;5095458;28;20031;-85
2022/09/24 05:55:08;;;;;;;5.05;1.20;;;;;;;13.27;100.00;100665.56;5094183;28;20118;-85
2022/09/24 05:57:34;;;;;;;8.30;2.00;;;;;;;13.02;100.00;100672.66;5095223;28;20024;-85
2022/09/24 06:00:00;;;;;;;6.43;1.23;;;;;;;12.88;100.00;100671.03;5094933;28;20367;-85
2022/09/24 06:02:25;;;;;;;7.10;1.40;;;;;;;12.87;100.00;100666.72;5094987;28;20367;-85
2022/09/24 06:04:50;;;;;;;4.25;1.55;;;;;;;12.95;100.00;100676.69;5094550;28;20103;-85
2022/09/24 06:07:16;;;;;;;4.80;1.33;;;;;;;12.82;100.00;100678.56;5092982;28;20478;-85
2022/09/24 06:09:41;;;;;;;2.95;1.10;;;;;;;13.05;100.00;100682.97;5090630;28;20036;-85
2022/09/24 06:12:07;;;;;;;6.93;1.42;;;;;;;12.99;100.00;100680.78;5094844;28;20059;-85
2022/09/24 06:14:32;;;;;;;6.45;1.70;;;;;;;12.99;100.00;100691.31;5094542;28;20024;-85
2022/09/24 06:16:57;;;;;;;4.78;1.17;;;;;;;12.96;100.00;100686.28;5094321;28;20032;-84
2022/09/24 06:19:23;;;;;;;8.30;1.40;;;;;;;12.95;100.00;100689.84;5094395;28;20051;-86
2022/09/24 06:21:48;;;;;;;2.72;1.35;;;;;;;12.99;100.00;100699.22;5094684;28;20581;-85
2022/09/24 06:24:14;;;;;;;4.60;1.38;;;;;;;13.23;100.00;100698.38;5093676;28;20031;-85
2022/09/24 06:26:40;;;;;;;4.43;1.00;;;;;;;13.26;100.00;100700.78;5093261;28;20051;-85
2022/09/24 06:29:05;;;;;;;6.68;1.42;;;;;;;13.22;100.00;100699.34;5092771;28;20036;-85
2022/09/24 06:31:31;;;;;;;6.10;1.67;;;;;;;13.21;100.00;100702.91;5093959;28;20046;-85
2022/09/24 06:33:56;;;;;;;5.15;1.25;;;;;;;13.24;100.00;100702.69;5093832;28;20054;-84
2022/09/24 06:36:22;;;;;;;2.20;1.02;;;;;;;13.23;100.00;100712.41;5093931;28;20024;-85
2022/09/24 06:38:51;;;;;;;7.43;1.60;;;;;;;13.22;100.00;100712.53;5093224;28;20024;-85
2022/09/24 06:41:17;;;;;;;11.38;2.28;;;;;;;12.94;100.00;100706.63;5092702;28;20024;-85
2022/09/24 06:43:42;;;;;;;2.88;1.30;;;;;;;13.27;100.00;100713.84;5093841;28;20493;-84
2022/09/24 06:46:07;;;;;;;6.38;1.58;;;;;;;13.33;100.00;100717.00;5093854;28;20069;-85
2022/09/24 06:48:33;;;;;;;4.40;1.52;;;;;;;13.37;100.00;100713.19;5092979;28;20020;-84
2022/09/24 06:50:58;;;;;;;5.60;1.40;;;;;;;13.42;100.00;100716.34;5093051;28;20442;-85
2022/09/24 06:53:24;;;;;;;8.48;1.67;;;;;;;13.37;100.00;100715.81;5092602;28;20020;-84
2022/09/24 06:55:49;;;;;;;5.45;1.83;;;;;;;13.54;100.00;100717.22;5092305;28;20032;-85
2022/09/24 06:58:18;;;;;;;7.20;1.23;;;;;;;13.44;100.00;100720.53;5093246;28;20021;-85
2022/09/24 07:01:00;;;;;;;8.13;2.33;;;;;;;13.62;100.00;100720.09;5093318;28;20028;-85
2022/09/24 07:03:27;;;;;;;5.90;1.27;;;;;;;13.71;100.00;100723.84;5092836;28;20448;-85
2022/09/24 07:05:53;;;;;;;5.28;1.38;;;;;;;13.87;100.00;100722.56;5093353;28;20020;-85
2022/09/24 07:08:19;;;;;;;5.60;1.85;;;;;;;14.08;100.00;100727.16;5092554;28;20040;-85
2022/09/24 07:10:47;;;;;;;6.05;2.08;;;;;;;14.36;100.00;100733.75;5093354;28;20111;-84
2022/09/24 07:13:13;;;;;;;7.45;1.50;;;;;;;15.17;98.34;100728.22;5093097;28;20048;-84
2022/09/24 07:15:40;;;;;;;6.55;1.30;;;;;;;14.99;96.81;100728.75;5093317;28;20116;-84
2022/09/24 07:18:06;;;;;;;7.00;1.58;;;;;;;14.82;98.80;100732.75;5091202;28;20028;-85
2022/09/24 07:20:33;;;;;;;6.45;1.40;;;;;;;14.60;99.68;100736.28;5091958;28;20051;-85
2022/09/24 07:22:59;;;;;;;11.25;1.83;;;;;;;14.71;100.00;100742.50;5092153;28;20024;-85
2022/09/24 07:25:24;;;;;;;19.23;2.08;;;;;;;14.88;98.30;100742.00;5093240;28;20482;-85
2022/09/24 07:27:50;;;;;;;9.13;1.45;;;;;;;14.95;98.11;100750.25;5092642;28;20024;-89
2022/09/24 07:30:16;;;;;;;10.02;2.22;;;;;;;15.26;96.63;100743.31;5091138;28;20083;-85
2022/09/24 07:32:41;;;;;;;10.85;2.05;;;;;;;15.22;96.69;100737.44;5091794;28;20408;-83
2022/09/24 07:35:08;;;;;;;6.97;1.48;;;;;;;15.90;93.40;100737.13;5092344;28;20359;-84
2022/09/24 07:37:33;;;;;;;7.57;1.60;;;;;;;18.26;81.40;100732.75;5092400;28;20024;-84
2022/09/24 07:39:58;;;;;;;6.72;1.48;;;;;;;18.94;75.43;100735.09;5091936;28;20016;-84
2022/09/24 07:42:24;;;;;;;11.90;2.10;;;;;;;19.38;72.75;100742.31;5092674;28;20374;-84
2022/09/24 07:44:50;;;;;;;;;;;;;;;21.11;65.40;100744.06;5093491;28;20035;-84
2022/09/24 07:47:15;;;;;;;;;;;;;;;24.50;53.15;100735.72;5093416;28;19970;-86
2022/09/24 07:49:41;;;;;;;;;;;;;;;28.57;42.01;100738.31;5091210;28;19916;-86
2022/09/24 07:52:07;;;;;;;;;;;;;;;29.65;36.82;100734.69;5092382;28;20330;-86
2022/09/24 07:54:32;;;;;;;;;;;;;;;28.02;38.44;100733.31;5093198;28;20369;-85
2022/09/24 07:56:57;;;;;;;;;;;;;;;28.02;39.11;100735.16;5091491;28;19926;-85
2022/09/24 07:59:23;;;;;;;5.25;1.20;;;;;;;29.18;37.35;100733.44;5091969;28;19920;-85
2022/09/24 08:01:49;;;;;;;;;;;;;;;32.42;32.71;100733.75;5092597;28;20039;-86
2022/09/24 08:04:14;;;;;;;;;;;;;;;34.33;29.67;100733.09;5092545;28;19974;-85
2022/09/24 08:06:39;;;;;;;;;;;;;;;35.80;27.45;100738.53;5088936;28;19920;-86
2022/09/24 08:09:05;;;;;;;;;;;;;;;35.75;26.53;100742.06;5093834;28;20386;-86
2022/09/24 08:11:32;;;;;;;;;;;;;;;38.51;24.18;100736.97;5092879;28;19912;-86
2022/09/24 08:13:57;;;;;;;;;;;;;;;39.47;22.87;100737.41;5093179;28;20009;-86
2022/09/24 08:16:23;;;;;;;;;;;;;;;41.44;21.39;100743.53;5101318;28;19911;-86
2022/09/24 08:18:48;;;;;;;;;;;;;;;40.33;22.05;100739.47;5095425;28;20002;-86
2022/09/24 08:21:14;;;;;;;;;;;;;;;40.14;22.01;100737.47;5092201;28;19915;-88
2022/09/24 08:23:39;;;;;;;;;;;;;;;40.07;21.58;100736.19;5091894;28;20015;-86
2022/09/24 08:26:05;;;;;;;;;;;;;;;39.38;22.75;100739.09;5092683;28;19916;-84
2022/09/24 08:28:30;;;;;;;;;;;;;;;41.25;20.99;100731.75;5092063;28;20116;-83
2022/09/24 08:30:57;;;;;;;;;;;;;;;41.11;20.88;100737.19;5091550;28;19923;-86
2022/09/24 08:33:22;;;;;;;;;;;;;;;42.85;19.99;100744.69;5092742;28;20345;-86
2022/09/24 08:35:48;;;;;;;;;;;;;;;43.84;18.94;100752.94;5092665;28;19951;-86
2022/09/24 08:38:13;;;;;;;;;;;;;;;43.22;19.33;100752.94;5091479;28;20416;-85
2022/09/24 08:40:43;;;;;;;;;;;;;;;40.45;20.44;100737.09;5092590;28;20385;-84
2022/09/24 08:43:26;;;;;;;;;;;;;;;42.04;20.00;100741.84;5092292;28;20321;-84
2022/09/24 08:48:39;;;;;;;;;;;;;;;40.85;20.27;100734.88;5090946;28;20113;-84
2022/09/24 08:51:07;;;;;;;;;;;;;;;42.71;19.19;100739.25;5092784;28;19912;-85
2022/09/24 08:53:38;;;;;;;;;;;;;;;41.98;19.33;100752.94;5092415;28;20365;-84
2022/09/24 08:56:05;;;;;;;;;;;;;;;42.02;19.05;100750.41;5092419;28;19912;-84
2022/09/24 08:58:30;;;;;;;;;;;;;;;40.57;19.96;100744.91;5092232;28;20007;-88
2022/09/24 09:01:05;;;;;;;;;;;;;;;41.47;20.31;100755.88;5091403;28;19995;-84
2022/09/24 09:03:46;;;;;;;;;;;;;;;43.57;18.19;100757.53;5092376;28;19955;-84
2022/09/24 09:06:27;;;;;;;;;;;;;;;43.27;18.19;100750.91;5092334;28;19912;-84
2022/09/24 09:08:55;;;;;;;;;;;;;;;43.49;18.24;100757.50;5092135;28;19965;-84
2022/09/24 09:11:22;;;;;;;;;;;;;;;45.14;16.78;100755.00;5092627;28;20270;-84
2022/09/24 09:13:51;;;;;;;;;;;;;;;44.68;16.99;100764.84;5092449;28;20385;-84
2022/09/24 09:16:19;;;;;;;;;;;;;;;43.34;17.51;100767.81;5091112;28;19923;-84
2022/09/24 09:18:46;;;;;;;;;;;;;;;39.62;19.42;100764.72;5086846;28;20093;-84
2022/09/24 09:21:15;;;;;;;;;;;;;;;43.73;17.48;100762.69;5089104;28;19915;-84
2022/09/24 09:23:45;;;;;;;;;;;;;;;44.09;17.17;100759.69;5089370;28;19911;-85
2022/09/24 09:26:11;;;;;;;;;;;;;;;44.37;16.44;100770.50;5078488;28;19962;-84
2022/09/24 09:28:36;;;;;;;;;;;;;;;42.55;18.18;100763.63;5074860;28;20282;-84
2022/09/24 09:31:07;;;;;;;;;;;;;;;43.24;17.60;100762.53;5076550;28;20007;-84
2022/09/24 09:33:32;;;;;;;;;;;;;;;42.54;18.04;100762.00;5089496;28;19916;-84
2022/09/24 09:36:16;;;;;;;;;;;;;;;43.63;17.38;100763.75;5090208;28;20278;-84
2022/09/24 09:38:53;;;;;;;;;;;;;;;43.85;17.12;100765.63;5090094;28;19922;-84
2022/09/24 09:41:37;;;;;;;;;;;;;;;44.41;16.67;100773.44;5094000;28;19923;-84
2022/09/24 09:44:14;;;;;;;;;;;;;;;44.23;17.10;100769.81;5094892;28;19920;-84
2022/09/24 09:46:45;;;;;;;;;;;;;;;43.84;17.05;100774.25;5095779;28;20361;-84
2022/09/24 09:49:12;;;;;;;;;;;;;;;42.45;17.92;100763.06;5094374;28;19923;-84
2022/09/24 09:51:39;;;;;;;;;;;;;;;41.11;19.23;100756.47;5095107;28;19916;-84
2022/09/24 09:54:05;;;;;;;;;;;;;;;39.82;19.68;100766.44;5095966;28;20385;-84
2022/09/24 09:56:44;;;;;;;;;;;;;;;41.41;18.65;100761.50;5095562;28;19924;-84
2022/09/24 09:59:09;;;;;;;;;;;;;;;42.29;18.41;100760.59;5093362;28;20384;-84
2022/09/24 10:01:36;;;;;;;;;;;;;;;41.84;18.55;100770.63;5095488;28;19962;-84
2022/09/24 10:04:03;;;;;;;;;;;;;;;42.18;18.18;100765.53;5095447;28;19912;-84
2022/09/24 10:06:37;;;;;;;;;;;;;;;42.86;17.85;100765.72;5093954;28;20556;-84
2022/09/24 10:09:14;;;;;;;;;;;;;;;42.05;18.56;100766.38;5093837;28;19969;-84
2022/09/24 10:11:40;;;;;;;;;;;;;;;40.64;18.86;100778.34;5094852;28;19962;-84
2022/09/24 10:14:08;;;;;;;;;;;;;;;41.12;19.23;100771.91;5095395;28;20271;-84
2022/09/24 10:16:38;;;;;;;;;;;;;;;41.53;18.29;100757.41;5094572;28;19912;-84
2022/09/24 10:19:03;;;;;;;;;;;;;;;40.66;20.02;100769.81;5094937;28;19912;-84
2022/09/24 10:21:33;;;;;;;;;;;;;;;39.29;21.13;100766.38;5094510;28;19923;-84
2022/09/24 10:23:59;;;;;;;;;;;;;;;37.45;22.08;100768.81;5094286;28;19923;-84
2022/09/24 10:26:38;;;;;;;;;;;;;;;36.20;23.04;100769.91;5094934;28;20038;-83
2022/09/24 10:31:49;;;;;;;;;;;;;;;33.66;25.06;100768.66;5092659;28;19919;-83
2022/09/24 10:34:20;;;;;;;;;;;;;;;34.74;25.04;100760.84;5093824;28;20308;-83
2022/09/24 10:36:50;;;;;;;;;;;;;;;33.69;25.16;100770.88;5093412;28;19927;-83
2022/09/24 10:39:15;;;;;;;;;;;;;;;33.29;25.86;100764.50;5094511;28;20445;-83
2022/09/24 10:41:47;;;;;;;;;;;;;;;34.84;24.56;100762.03;5094581;28;19956;-83
2022/09/24 10:44:13;;;;;;;;;;;;;;;35.03;23.84;100763.28;5094320;28;20009;-83
2022/09/24 10:46:41;;;;;;;;;;;;;;;32.73;25.90;100764.31;5085941;28;20390;-83
2022/09/24 10:49:23;;;;;;;;;;;;;;;33.19;25.67;100762.44;5092128;28;19973;-83
2022/09/24 10:52:09;;;;;;;;;;;;;;;34.04;24.66;100753.41;5094026;28;20316;-83
2022/09/24 10:54:40;;;;;;;;;;;;;;;33.89;25.23;100765.75;5086439;28;20009;-83
2022/09/24 10:57:18;;;;;;;;;;;;;;;34.00;24.57;100765.88;5083549;28;20003;-83
2022/09/24 10:59:57;;;;;;;;;;;;;;;33.88;24.36;100763.25;5093557;28;19915;-83
2022/09/24 11:02:22;;;;;;;;;;;;;;;35.85;22.15;100766.69;5079935;28;19973;-83
2022/09/24 11:04:48;;;;;;;;;;;;;;;34.19;22.90;100769.97;5094116;28;20430;-83
2022/09/24 11:07:32;;;;;;;;;;;;;;;35.16;22.93;100767.53;5092021;28;19916;-83
2022/09/24 11:10:08;;;;;;;;;;;;;;;34.10;23.51;100761.38;5094111;28;20480;-83
2022/09/24 11:12:49;;;;;;;;;;;;;;;35.51;22.64;100760.72;5094711;28;19908;-83
2022/09/24 11:15:20;;;;;;;;;;;;;;;34.10;23.04;100755.09;5093927;28;19948;-83
2022/09/24 11:17:59;;;;;;;;;;;;;;;33.67;23.65;100760.25;5092460;28;19923;-83
2022/09/24 11:20:30;;;;;;;;;;;;;;;34.21;23.76;100765.09;5088188;28;20373;-83
2022/09/24 11:23:14;;;;;;;;;;;;;;;33.97;24.33;100761.75;5094284;28;19912;-83
2022/09/24 11:25:47;;;;;;;;;;;;;;;34.02;23.78;100761.00;5093832;28;20270;-83
2022/09/24 11:28:21;;;;;;;;;;;;;;;34.14;24.77;100756.25;5094255;28;19912;-82
2022/09/24 11:31:02;;;;;;;;;;;;;;;32.52;24.93;100767.66;5081944;28;19970;-83
2022/09/24 11:33:30;;;;;;;;;;;;;;;33.16;23.81;100762.13;5074171;28;20393;-82
2022/09/24 11:36:04;;;;;;;;;;;;;;;33.53;24.75;100769.78;5086417;28;19961;-83
2022/09/24 11:38:41;;;;;;;;;;;;;;;35.57;22.68;100767.03;5093303;28;20369;-83
2022/09/24 11:41:09;;;;;;;;;;;;;;;34.50;22.00;100759.44;5094136;28;19955;-83
2022/09/24 11:43:49;;;;;;;;;;;;;;;33.82;22.95;100756.09;5094171;28;19923;-83
2022/09/24 11:46:20;;;;;;;;;;;;;;;34.84;22.87;100754.66;5091062;28;19961;-83
2022/09/24 11:49:04;;;;;;;;;;;;;;;34.07;23.63;100755.63;5093726;28;20002;-83
2022/09/24 11:51:49;;;;;;;;;;;;;;;32.29;26.01;100757.66;5093431;28;19974;-83
2022/09/24 11:54:20;;;;;;;;;;;;;;;34.82;23.97;100750.56;5093778;28;19912;-83
2022/09/24 11:56:48;;;;;;;;;;;;;;;33.81;25.17;100754.44;5094339;28;20299;-83
2022/09/24 11:59:32;;;;;;;;;;;;;;;35.36;23.43;100755.97;5093471;28;19912;-83
2022/09/24 12:02:00;;;;;;;;;;;;;;;34.10;24.90;100753.19;5092939;28;19916;-83
2022/09/24 12:04:48;;;;;;;;;;;;;;;32.64;25.85;100765.75;5092924;28;19912;-83